Tervuren markt Meer informatie Tervuren markt


Bezoek onze andere website:

Meteotemplate

Home Weather Station

Saratoga


Lokaal brand risico:
CBI


Regionaal brand risico: Meer informatie



METAR rapporten vliegvelden

   
EBBR - Brussels
Gewijzigd: Jan 15 2021 2:50 pm
Grotendeels bewolkt  
Grotendeels bewolkt  
   Wind: Noorden 7.4 km/h
Wind: Noorden 7.4 km/h
Temperatuur: 1°C
Voelt als: -1°C
Dauwpunt: -2°C
Vochtigheid: 81%
Barometer: 1029 mb
Bewolking: Grotendeels bewolkt
Zicht: meer dan 10 km
Bewolking: Grotendeels bewolkt 1371.6 m
EBBR 151350Z 36004KT 9999 BKN045 01/M02 Q1029 NOSIG
EBAW - Antwerp
Gewijzigd: Jan 15 2021 2:50 pm
Grotendeels bewolkt  
Grotendeels bewolkt  
   Wind: Noorden 9.3 km/h
Wind: Noorden 9.3 km/h
Temperatuur: 2°C
Voelt als: -1°C
Dauwpunt: -3°C
Vochtigheid: 70%
Barometer: 1030 mb
Bewolking: Grotendeels bewolkt
Zicht: meer dan 10 km
Bewolking: Grotendeels bewolkt 1402.1 m
EBAW 151350Z 35005KT 9999 BKN046 02/M03 Q1030 NOSIG
EHBK - Maastricht
Gewijzigd: Jan 15 2021 2:55 pm
Bewolking  
Bewolking  
   Wind: NNW 7.4 km/h
Wind: NNW 7.4 km/h
Temperatuur: 1°C
Voelt als: -1°C
Dauwpunt: -1°C
Vochtigheid: 87%
Barometer: 1028 mb
Bewolking: Bewolking
Zicht: meer dan 10 km
Bewolking: Licht bewolkt 274.3 m,
Bewolking 1463 m
EHBK 151355Z AUTO 33004KT 300V010 9999 FEW009 OVC048 01/M01 Q1028 NOSIG
EDLV - Nijmegen
Gewijzigd: Jan 15 2021 2:50 pm
Helder  
Helder  
   Wind: varieert 5.6 km/h
Wind: varieert 5.6 km/h
Temperatuur: 2°C
Voelt als: 1°C
Dauwpunt: -2°C
Vochtigheid: 75%
Barometer: 1029 mb
Zicht: meer dan 10 km
Bewolking: Helder
EDLV 151350Z VRB03KT CAVOK 02/M02 Q1029
EHRD - Rotterdam
Gewijzigd: Jan 15 2021 2:55 pm
Bewolking  
Bewolking  
   Wind: Westen 5.6 km/h
Wind: Westen 5.6 km/h
Temperatuur: 3°C
Voelt als: 2°C
Dauwpunt: -1°C
Vochtigheid: 75%
Barometer: 1029 mb
Bewolking: Bewolking
Zicht: meer dan 10 km
Bewolking: Bewolking 1402.1 m
EHRD 151355Z AUTO 28003KT 240V300 9999 OVC046 03/M01 Q1029 NOSIG
 

Script ontwikkeld door  Saratoga-weather.org Aangepast voor de template door  Weerstation Leuven

U vindt ons ook hier:

Het Weer Aktueel

UK Metoffice

European Weather Network

WeatherCloud

Weather Underground

Benelux Weer Netwerk

AWEKAS

Citizen Weather Observer Program (CWOP)

HAMweather, WeatherForYou, PWS Weather

Apparatuur in gebruik:

Weerstation
Davis VP2

Weerprogramma
Meteobridge

Weercomputer
TP-Link MR3020

Davis VP2

Meteobridge

TP-Link MR3020